createdAt,value
2019-05-26T00:00:49.863Z,15.00
2019-05-26T00:03:18.452Z,10.03
2019-05-26T00:05:46.971Z,10.60
2019-05-26T00:08:15.406Z,12.00
2019-05-26T00:10:43.917Z,13.73
2019-05-26T00:13:12.496Z,10.60
2019-05-26T00:15:40.908Z,12.00
2019-05-26T00:18:09.544Z,10.27
2019-05-26T00:20:38.040Z,11.80
2019-05-26T00:23:06.487Z,13.73
2019-05-26T00:25:34.893Z,14.17
2019-05-26T00:28:03.462Z,13.47
2019-05-26T00:30:32.986Z,11.33
2019-05-26T00:33:01.489Z,11.57
2019-05-26T00:35:29.896Z,11.13
2019-05-26T00:37:58.316Z,14.47
2019-05-26T00:40:27.031Z,13.33
2019-05-26T00:42:55.453Z,12.23
2019-05-26T00:45:24.026Z,13.70
2019-05-26T00:47:52.647Z,13.37
2019-05-26T00:50:21.193Z,13.47
2019-05-26T00:52:49.717Z,12.47
2019-05-26T00:55:18.475Z,14.60
2019-05-26T00:57:50.255Z,14.60
2019-05-26T01:00:38.470Z,16.33
2019-05-26T01:03:07.078Z,15.57
2019-05-26T01:05:35.568Z,17.10
2019-05-26T01:08:06.768Z,11.57
2019-05-26T01:10:36.095Z,13.47
2019-05-26T01:13:05.903Z,14.73
2019-05-26T01:15:34.402Z,14.33
2019-05-26T01:18:02.999Z,13.43
2019-05-26T01:20:31.760Z,12.30
2019-05-26T01:23:00.175Z,15.33
2019-05-26T01:25:28.766Z,14.73
2019-05-26T01:27:57.230Z,13.90
2019-05-26T01:30:34.493Z,16.67
2019-05-26T01:33:02.934Z,13.93
2019-05-26T01:35:31.801Z,14.63
2019-05-26T01:38:00.667Z,14.60
2019-05-26T01:40:39.983Z,11.93
2019-05-26T01:43:09.011Z,12.20
2019-05-26T01:45:37.462Z,13.33
2019-05-26T01:48:07.255Z,11.70
2019-05-26T01:50:36.280Z,13.27
2019-05-26T01:53:05.226Z,14.97
2019-05-26T01:55:33.757Z,13.47
2019-05-26T01:58:02.193Z,11.57
2019-05-26T02:00:30.615Z,11.43
2019-05-26T02:02:59.472Z,13.73
2019-05-26T02:05:27.922Z,13.93
2019-05-26T02:07:56.397Z,11.20
2019-05-26T02:10:24.914Z,10.53
2019-05-26T02:12:53.435Z,11.27
2019-05-26T02:15:23.182Z,13.00
2019-05-26T02:17:51.610Z,12.10
2019-05-26T02:20:20.466Z,16.40
2019-05-26T02:22:48.939Z,10.87
2019-05-26T02:25:19.252Z,14.03
2019-05-26T02:27:47.649Z,11.07
2019-05-26T02:30:17.705Z,16.90
2019-05-26T02:32:46.311Z,12.13
2019-05-26T02:35:15.269Z,12.07
2019-05-26T02:37:43.880Z,14.50
2019-05-26T02:40:14.236Z,11.60
2019-05-26T02:42:42.671Z,12.33
2019-05-26T02:45:14.161Z,11.37
2019-05-26T02:47:42.953Z,17.33
2019-05-26T02:50:12.115Z,11.83
2019-05-26T02:52:40.553Z,16.93
2019-05-26T02:55:09.941Z,12.93
2019-05-26T02:57:37.361Z,14.47
2019-05-26T03:00:09.096Z,13.17
2019-05-26T03:02:37.588Z,14.33
2019-05-26T03:05:11.686Z,11.67
2019-05-26T03:07:45.406Z,14.83
2019-05-26T03:10:14.703Z,13.73
2019-05-26T03:12:43.879Z,13.13
2019-05-26T03:15:13.870Z,14.80
2019-05-26T03:17:42.802Z,11.90
2019-05-26T03:20:13.779Z,17.63
2019-05-26T03:22:42.893Z,13.53
2019-05-26T03:25:12.724Z,13.50
2019-05-26T03:27:41.403Z,15.27
2019-05-26T03:30:10.394Z,14.23
2019-05-26T03:32:39.138Z,14.67
2019-05-26T03:35:09.195Z,17.23
2019-05-26T03:37:37.720Z,14.37
2019-05-26T03:40:10.047Z,15.30
2019-05-26T03:42:38.613Z,15.17
2019-05-26T03:45:08.987Z,15.30
2019-05-26T03:47:37.538Z,13.17
2019-05-26T03:50:08.629Z,14.90
2019-05-26T03:52:37.080Z,16.03
2019-05-26T03:55:07.228Z,14.27
2019-05-26T03:57:35.671Z,14.73
2019-05-26T04:00:06.876Z,15.90
2019-05-26T04:02:35.299Z,13.70
2019-05-26T04:05:05.371Z,14.40
2019-05-26T04:07:33.838Z,19.77
2019-05-26T04:10:05.906Z,15.33
2019-05-26T04:12:33.366Z,17.43
2019-05-26T04:15:01.930Z,16.60
2019-05-26T04:17:30.596Z,17.57
2019-05-26T04:19:59.023Z,15.07
2019-05-26T04:22:27.470Z,13.90
2019-05-26T04:24:55.885Z,17.67
2019-05-26T04:27:24.321Z,17.77
2019-05-26T04:29:52.742Z,19.07
2019-05-26T04:32:21.300Z,15.33
2019-05-26T04:34:49.737Z,17.67
2019-05-26T04:37:18.253Z,15.83
2019-05-26T04:39:46.701Z,22.50
2019-05-26T04:42:15.223Z,14.17
2019-05-26T04:44:43.729Z,16.17
2019-05-26T04:47:12.276Z,15.63
2019-05-26T04:49:40.735Z,16.63
2019-05-26T04:52:09.356Z,15.37
2019-05-26T04:54:37.825Z,16.07
2019-05-26T04:57:06.283Z,14.97
2019-05-26T04:59:34.704Z,16.40
2019-05-26T05:02:03.115Z,18.43
2019-05-26T05:04:31.553Z,16.83
2019-05-26T05:06:59.962Z,16.17
2019-05-26T05:09:28.509Z,17.60
2019-05-26T05:11:56.960Z,16.10
2019-05-26T05:14:25.545Z,21.13
2019-05-26T05:16:53.974Z,17.90
2019-05-26T05:19:22.523Z,17.83
2019-05-26T05:21:50.983Z,14.83
2019-05-26T05:24:19.494Z,17.37
2019-05-26T05:26:47.955Z,16.77
2019-05-26T05:29:16.505Z,20.20
2019-05-26T05:31:44.948Z,16.47
2019-05-26T05:34:13.405Z,15.63
2019-05-26T05:36:41.813Z,16.83
2019-05-26T05:39:10.217Z,20.50
2019-05-26T05:41:38.769Z,17.83
2019-05-26T05:44:07.175Z,17.20
2019-05-26T05:46:35.753Z,17.03
2019-05-26T05:49:04.247Z,20.17
2019-05-26T05:51:32.764Z,16.67
2019-05-26T05:54:01.210Z,18.77
2019-05-26T05:56:29.747Z,16.93
2019-05-26T05:58:58.231Z,18.27
2019-05-26T06:01:26.577Z,21.33
2019-05-26T06:03:55.011Z,22.87
2019-05-26T06:06:23.441Z,17.23
2019-05-26T06:08:52.065Z,15.33
2019-05-26T06:11:20.514Z,17.90
2019-05-26T06:13:48.954Z,18.70
2019-05-26T06:16:17.378Z,15.77
2019-05-26T06:18:45.967Z,16.27
2019-05-26T06:21:14.401Z,16.37
2019-05-26T06:23:43.047Z,19.17
2019-05-26T06:26:11.489Z,15.23
2019-05-26T06:28:40.336Z,17.63
2019-05-26T06:31:08.767Z,17.03
2019-05-26T06:33:37.255Z,14.83
2019-05-26T06:36:05.787Z,17.87
2019-05-26T06:38:34.212Z,16.33
2019-05-26T06:41:02.809Z,13.80
2019-05-26T06:43:31.243Z,19.30
2019-05-26T06:45:59.651Z,15.40
2019-05-26T06:48:28.079Z,18.07
2019-05-26T06:50:56.506Z,17.00
2019-05-26T06:53:25.206Z,15.90
2019-05-26T06:55:53.662Z,17.23
2019-05-26T06:58:22.105Z,15.87
2019-05-26T07:00:50.501Z,19.27
2019-05-26T07:03:19.018Z,18.23
2019-05-26T07:05:47.495Z,17.13
2019-05-26T07:08:17.765Z,19.00
2019-05-26T07:10:46.218Z,15.77
2019-05-26T07:13:14.643Z,17.47
2019-05-26T07:15:43.197Z,20.33
2019-05-26T07:18:11.718Z,22.47
2019-05-26T07:20:40.137Z,17.47
2019-05-26T07:23:09.321Z,14.80
2019-05-26T07:25:38.686Z,15.97
2019-05-26T07:28:07.251Z,16.50
2019-05-26T07:30:35.755Z,14.57
2019-05-26T07:33:04.472Z,19.93
2019-05-26T07:35:33.308Z,18.47
2019-05-26T07:38:02.093Z,16.23
2019-05-26T07:40:30.529Z,14.83
2019-05-26T07:42:59.075Z,18.20
2019-05-26T07:45:27.493Z,19.27
2019-05-26T07:47:56.091Z,17.20
2019-05-26T07:50:25.172Z,17.53
2019-05-26T07:52:53.692Z,18.07
2019-05-26T07:55:22.120Z,19.33
2019-05-26T07:57:50.749Z,16.77
2019-05-26T08:00:19.829Z,16.70
2019-05-26T08:02:48.361Z,15.27
2019-05-26T08:05:17.148Z,16.43
2019-05-26T08:07:45.667Z,22.33
2019-05-26T08:10:15.865Z,27.47
2019-05-26T08:12:44.288Z,21.47
2019-05-26T08:15:13.298Z,17.83
2019-05-26T08:17:41.702Z,22.23
2019-05-26T08:20:11.337Z,19.90
2019-05-26T08:22:40.018Z,16.47
2019-05-26T08:25:09.036Z,20.20
2019-05-26T08:27:37.603Z,16.20
2019-05-26T08:30:07.503Z,18.70
2019-05-26T08:32:37.453Z,21.37
2019-05-26T08:35:08.304Z,19.50
2019-05-26T08:37:38.681Z,24.63
2019-05-26T08:40:21.704Z,16.97
2019-05-26T08:42:52.006Z,14.83
2019-05-26T08:45:23.745Z,19.50
2019-05-26T08:47:52.539Z,16.60
2019-05-26T08:50:21.592Z,15.70
2019-05-26T08:52:50.395Z,18.03
2019-05-26T08:55:18.968Z,23.97
2019-05-26T08:57:47.528Z,16.90
2019-05-26T09:00:16.804Z,14.43
2019-05-26T09:02:45.466Z,14.77
2019-05-26T09:05:15.622Z,12.40
2019-05-26T09:07:44.254Z,12.37
2019-05-26T09:10:13.800Z,15.90
2019-05-26T09:12:42.445Z,18.37
2019-05-26T09:15:11.281Z,15.30
2019-05-26T09:17:39.663Z,14.20
2019-05-26T09:20:11.319Z,12.83
2019-05-26T09:22:39.642Z,16.80
2019-05-26T09:25:08.285Z,14.93
2019-05-26T09:27:36.714Z,18.20
2019-05-26T09:30:10.743Z,13.27
2019-05-26T09:32:39.196Z,13.93
2019-05-26T09:35:08.350Z,9.40
2019-05-26T09:37:36.815Z,14.63
2019-05-26T09:40:08.172Z,21.00
2019-05-26T09:42:36.606Z,9.80
2019-05-26T09:45:07.862Z,6.43
2019-05-26T09:47:36.426Z,9.97
2019-05-26T09:50:07.044Z,8.40
2019-05-26T09:52:35.537Z,7.93
2019-05-26T09:55:05.918Z,12.60
2019-05-26T09:57:34.639Z,9.20
2019-05-26T10:00:04.957Z,10.60
2019-05-26T10:02:33.426Z,7.20
2019-05-26T10:05:01.919Z,6.93
2019-05-26T10:07:30.406Z,8.80
2019-05-26T10:09:58.807Z,9.47
2019-05-26T10:12:27.453Z,6.63
2019-05-26T10:14:55.890Z,7.17
2019-05-26T10:17:24.415Z,8.37
2019-05-26T10:19:52.938Z,7.97
2019-05-26T10:22:21.470Z,11.17
2019-05-26T10:24:50.276Z,9.27
2019-05-26T10:27:18.779Z,8.33
2019-05-26T10:29:47.236Z,6.53
2019-05-26T10:32:15.701Z,9.07
2019-05-26T10:34:44.265Z,8.03
2019-05-26T10:37:12.700Z,6.20
2019-05-26T10:39:49.926Z,6.07
2019-05-26T10:42:18.356Z,6.20
2019-05-26T10:44:46.844Z,10.30
2019-05-26T10:47:15.241Z,6.67
2019-05-26T10:49:43.771Z,6.70
2019-05-26T10:52:12.275Z,7.97
2019-05-26T10:54:40.677Z,8.07
2019-05-26T10:57:09.315Z,6.07
2019-05-26T10:59:38.137Z,6.93
2019-05-26T11:02:06.840Z,3.43
2019-05-26T11:04:35.309Z,4.23
2019-05-26T11:07:03.979Z,4.70
2019-05-26T11:09:32.440Z,5.37
2019-05-26T11:12:00.897Z,7.13
2019-05-26T11:14:29.316Z,4.43
2019-05-26T11:16:57.935Z,4.23
2019-05-26T11:19:26.376Z,6.47
2019-05-26T11:21:54.990Z,7.67
2019-05-26T11:24:23.421Z,2.73
2019-05-26T11:26:51.942Z,3.03
2019-05-26T11:29:20.722Z,2.23
2019-05-26T11:31:49.154Z,5.27
2019-05-26T11:34:17.756Z,3.87
2019-05-26T11:36:46.216Z,3.23
2019-05-26T11:39:14.742Z,2.63
2019-05-26T11:41:43.157Z,3.80
2019-05-26T11:44:17.859Z,5.00
2019-05-26T11:46:42.026Z,5.53
2019-05-26T11:49:10.610Z,6.80
2019-05-26T11:51:39.091Z,4.27
2019-05-26T11:54:07.490Z,3.60
2019-05-26T11:56:36.096Z,5.13
2019-05-26T11:59:04.898Z,4.80
2019-05-26T12:01:33.325Z,4.03
2019-05-26T12:04:05.509Z,4.10
2019-05-26T12:06:34.029Z,5.50
2019-05-26T12:09:03.307Z,6.07
2019-05-26T12:11:31.827Z,2.57
2019-05-26T12:14:00.419Z,3.10
2019-05-26T12:16:29.092Z,4.77
2019-05-26T12:18:57.542Z,6.63
2019-05-26T12:21:26.179Z,5.53
2019-05-26T12:23:55.208Z,8.33
2019-05-26T12:26:23.880Z,5.17
2019-05-26T12:28:52.348Z,4.60
2019-05-26T12:31:20.766Z,3.33
2019-05-26T12:33:49.184Z,4.30
2019-05-26T12:36:17.584Z,4.87
2019-05-26T12:38:51.600Z,4.47
2019-05-26T12:41:21.353Z,5.73
2019-05-26T12:43:49.816Z,6.73
2019-05-26T12:46:18.358Z,5.03
2019-05-26T12:48:46.998Z,6.13
2019-05-26T12:51:15.667Z,8.23
2019-05-26T12:53:44.397Z,7.37
2019-05-26T12:56:12.804Z,14.30
2019-05-26T12:58:41.397Z,12.27
2019-05-26T13:01:09.965Z,3.67
2019-05-26T13:03:59.197Z,3.70
2019-05-26T13:06:27.622Z,3.50
2019-05-26T13:08:56.140Z,3.23
2019-05-26T13:11:24.647Z,3.90
2019-05-26T13:13:53.239Z,4.23
2019-05-26T13:16:21.692Z,3.20
2019-05-26T13:18:50.152Z,4.00
2019-05-26T13:21:18.645Z,5.60
2019-05-26T13:23:47.158Z,3.07
2019-05-26T13:26:15.615Z,4.60
2019-05-26T13:28:44.229Z,3.40
2019-05-26T13:31:12.640Z,2.43
2019-05-26T13:33:41.163Z,3.63
2019-05-26T13:36:09.658Z,3.83
2019-05-26T13:38:38.308Z,5.43
2019-05-26T13:41:06.723Z,4.43
2019-05-26T13:43:35.184Z,4.27
2019-05-26T13:46:03.697Z,5.90
2019-05-26T13:48:32.562Z,5.53
2019-05-26T13:51:01.080Z,4.97
2019-05-26T13:53:29.516Z,3.90
2019-05-26T13:55:58.116Z,6.63
2019-05-26T13:58:26.544Z,4.37
2019-05-26T14:00:55.085Z,6.30
2019-05-26T14:03:24.406Z,4.83
2019-05-26T14:05:52.880Z,6.00
2019-05-26T14:08:21.351Z,4.23
2019-05-26T14:10:49.837Z,5.10
2019-05-26T14:13:18.314Z,3.57
2019-05-26T14:15:48.480Z,3.03
2019-05-26T14:18:18.196Z,3.87
2019-05-26T14:20:46.793Z,4.47
2019-05-26T14:23:15.192Z,5.07
2019-05-26T14:25:43.783Z,5.23
2019-05-26T14:28:12.392Z,4.90
2019-05-26T14:30:40.801Z,5.40
2019-05-26T14:33:09.244Z,3.97
2019-05-26T14:35:38.078Z,4.33
2019-05-26T14:38:06.571Z,3.47
2019-05-26T14:40:35.045Z,5.70
2019-05-26T14:43:03.670Z,3.10
2019-05-26T14:45:32.077Z,4.83
2019-05-26T14:48:00.650Z,6.50
2019-05-26T14:50:29.119Z,5.00
2019-05-26T14:52:57.628Z,3.87
2019-05-26T14:55:26.233Z,4.17
2019-05-26T14:57:54.610Z,3.37
2019-05-26T15:00:24.867Z,14.90
2019-05-26T15:02:53.460Z,6.70
2019-05-26T15:05:21.862Z,12.30
2019-05-26T15:07:50.449Z,7.00
2019-05-26T15:10:22.514Z,5.40
2019-05-26T15:12:49.912Z,9.40
2019-05-26T15:15:18.649Z,4.33
2019-05-26T15:17:47.095Z,4.03
2019-05-26T15:20:16.078Z,4.33
2019-05-26T15:22:44.681Z,5.03
2019-05-26T15:25:13.253Z,5.67
2019-05-26T15:27:41.755Z,2.63
2019-05-26T15:30:11.798Z,4.57
2019-05-26T15:32:40.479Z,4.33
2019-05-26T15:35:10.309Z,36.10
2019-05-26T15:37:38.873Z,9.53
2019-05-26T15:40:09.075Z,8.23
2019-05-26T15:42:37.725Z,5.50
2019-05-26T15:45:07.882Z,4.93
2019-05-26T15:47:36.668Z,5.13
2019-05-26T15:50:06.457Z,4.10
2019-05-26T15:52:34.881Z,4.17
2019-05-26T15:55:03.712Z,4.27
2019-05-26T15:57:32.161Z,4.83
2019-05-26T16:00:00.653Z,5.50
2019-05-26T16:02:29.190Z,5.70
2019-05-26T16:04:59.071Z,3.93
2019-05-26T16:07:27.674Z,3.47
2019-05-26T16:09:56.110Z,4.40
2019-05-26T16:12:24.755Z,4.33
2019-05-26T16:14:53.168Z,3.53
2019-05-26T16:17:21.751Z,3.40
2019-05-26T16:19:50.151Z,3.33
2019-05-26T16:22:18.779Z,72.03
2019-05-26T16:24:47.496Z,21.03
2019-05-26T16:27:19.455Z,4.37
2019-05-26T16:29:46.826Z,4.33
2019-05-26T16:32:18.759Z,7.60
2019-05-26T16:34:45.867Z,3.47
2019-05-26T16:37:14.397Z,3.80
2019-05-26T16:39:42.831Z,3.47
2019-05-26T16:42:11.528Z,12.67
2019-05-26T16:44:39.944Z,6.33
2019-05-26T16:47:08.647Z,19.73
2019-05-26T16:49:39.041Z,11.93
2019-05-26T16:52:07.647Z,5.90
2019-05-26T16:54:36.377Z,4.53
2019-05-26T16:57:05.152Z,4.50
2019-05-26T16:59:33.616Z,3.73
2019-05-26T17:02:02.018Z,3.60
2019-05-26T17:04:30.734Z,4.67
2019-05-26T17:06:59.311Z,2.70
2019-05-26T17:09:27.709Z,6.43
2019-05-26T17:11:56.369Z,4.13
2019-05-26T17:14:24.950Z,2.27
2019-05-26T17:16:53.565Z,2.43
2019-05-26T17:19:21.979Z,9.40
2019-05-26T17:21:50.633Z,13.00
2019-05-26T17:24:19.042Z,46.97
2019-05-26T17:26:47.890Z,7.23
2019-05-26T17:29:16.359Z,10.80
2019-05-26T17:31:44.793Z,54.53
2019-05-26T17:34:13.323Z,27.87
2019-05-26T17:36:41.924Z,46.47
2019-05-26T17:39:10.357Z,29.63
2019-05-26T17:41:38.883Z,4.97
2019-05-26T17:44:07.376Z,6.57
2019-05-26T17:46:35.957Z,4.97
2019-05-26T17:49:04.464Z,5.33
2019-05-26T17:51:33.288Z,33.73
2019-05-26T17:54:01.755Z,5.47
2019-05-26T17:56:30.151Z,2.47
2019-05-26T17:58:58.582Z,3.80
2019-05-26T18:01:26.987Z,4.33
2019-05-26T18:03:55.442Z,4.97
2019-05-26T18:06:23.930Z,3.67
2019-05-26T18:08:52.355Z,3.47
2019-05-26T18:11:20.866Z,3.40
2019-05-26T18:13:49.417Z,3.77
2019-05-26T18:16:17.948Z,5.00
2019-05-26T18:18:46.410Z,3.20
2019-05-26T18:21:14.945Z,2.50
2019-05-26T18:23:43.432Z,2.73
2019-05-26T18:26:11.909Z,3.97
2019-05-26T18:28:40.410Z,3.57
2019-05-26T18:31:08.842Z,3.10
2019-05-26T18:33:37.297Z,2.43
2019-05-26T18:36:05.795Z,3.40
2019-05-26T18:38:34.338Z,8.53
2019-05-26T18:41:02.858Z,3.60
2019-05-26T18:43:31.287Z,6.00
2019-05-26T18:45:59.769Z,5.20
2019-05-26T18:48:28.316Z,4.53
2019-05-26T18:50:56.793Z,4.80
2019-05-26T18:53:25.286Z,2.90
2019-05-26T18:55:53.737Z,3.00
2019-05-26T18:58:22.171Z,5.90
2019-05-26T19:00:50.778Z,4.40
2019-05-26T19:03:19.238Z,3.67
2019-05-26T19:05:51.181Z,3.07
2019-05-26T19:08:19.610Z,5.97
2019-05-26T19:10:48.042Z,4.90
2019-05-26T19:13:16.530Z,3.53
2019-05-26T19:15:45.012Z,4.03
2019-05-26T19:18:19.798Z,4.23
2019-05-26T19:20:44.165Z,3.10
2019-05-26T19:23:12.563Z,5.80
2019-05-26T19:25:41.156Z,3.77
2019-05-26T19:28:09.656Z,3.57
2019-05-26T19:30:38.147Z,3.83
2019-05-26T19:33:06.675Z,4.87
2019-05-26T19:35:35.279Z,6.97
2019-05-26T19:38:03.819Z,4.57
2019-05-26T19:40:32.323Z,5.20
2019-05-26T19:43:00.730Z,2.97
2019-05-26T19:45:29.142Z,4.17
2019-05-26T19:47:57.632Z,3.47
2019-05-26T19:50:26.195Z,5.77
2019-05-26T19:52:54.679Z,3.77
2019-05-26T19:55:23.159Z,5.23
2019-05-26T19:57:51.624Z,3.67
2019-05-26T20:00:20.771Z,4.43
2019-05-26T20:02:49.176Z,5.37
2019-05-26T20:05:17.962Z,3.50
2019-05-26T20:07:46.603Z,3.47
2019-05-26T20:10:16.724Z,5.70
2019-05-26T20:12:45.130Z,5.20
2019-05-26T20:15:14.424Z,3.90
2019-05-26T20:17:42.981Z,3.17
2019-05-26T20:20:11.902Z,5.97
2019-05-26T20:22:40.344Z,4.50
2019-05-26T20:25:09.700Z,4.63
2019-05-26T20:27:38.298Z,4.63
2019-05-26T20:30:08.670Z,11.93
2019-05-26T20:32:37.134Z,7.27
2019-05-26T20:35:09.045Z,5.87
2019-05-26T20:37:37.617Z,3.90
2019-05-26T20:40:08.519Z,4.47
2019-05-26T20:42:37.346Z,5.20
2019-05-26T20:45:08.246Z,3.30
2019-05-26T20:47:36.713Z,7.33
2019-05-26T20:50:07.771Z,7.50
2019-05-26T20:52:36.719Z,3.30
2019-05-26T20:55:09.826Z,8.73
2019-05-26T20:57:38.399Z,3.47
2019-05-26T21:00:10.452Z,5.33
2019-05-26T21:02:39.523Z,4.03
2019-05-26T21:05:09.507Z,4.83
2019-05-26T21:07:37.931Z,5.80
2019-05-26T21:10:07.080Z,3.53
2019-05-26T21:12:35.474Z,5.80
2019-05-26T21:15:04.939Z,3.13
2019-05-26T21:17:33.577Z,4.57
2019-05-26T21:20:02.124Z,7.27
2019-05-26T21:22:30.547Z,4.00
2019-05-26T21:24:59.001Z,3.23
2019-05-26T21:27:27.458Z,2.83
2019-05-26T21:29:55.886Z,3.67
2019-05-26T21:32:24.387Z,5.13
2019-05-26T21:34:52.811Z,3.73
2019-05-26T21:37:21.213Z,4.47
2019-05-26T21:39:49.663Z,4.40
2019-05-26T21:42:18.057Z,2.77
2019-05-26T21:44:46.602Z,3.67
2019-05-26T21:47:15.101Z,6.77
2019-05-26T21:49:43.608Z,3.70
2019-05-26T21:52:12.109Z,3.60
2019-05-26T21:54:41.336Z,3.47
2019-05-26T21:57:09.942Z,5.33
2019-05-26T21:59:38.347Z,2.87
2019-05-26T22:02:07.088Z,6.40
2019-05-26T22:04:35.535Z,4.03
2019-05-26T22:07:04.236Z,4.07
2019-05-26T22:09:33.135Z,4.43
2019-05-26T22:12:01.731Z,3.70
2019-05-26T22:14:30.124Z,3.53
2019-05-26T22:16:58.703Z,4.47
2019-05-26T22:19:27.139Z,4.27
2019-05-26T22:21:55.662Z,3.00
2019-05-26T22:24:24.168Z,4.53
2019-05-26T22:26:52.704Z,3.53
2019-05-26T22:29:21.522Z,2.97
2019-05-26T22:31:49.903Z,3.13
2019-05-26T22:34:18.339Z,6.13
2019-05-26T22:36:46.732Z,6.07
2019-05-26T22:39:15.166Z,3.13
2019-05-26T22:41:43.682Z,4.43
2019-05-26T22:44:12.169Z,2.93
2019-05-26T22:46:40.676Z,4.83
2019-05-26T22:49:09.116Z,4.13
2019-05-26T22:51:37.729Z,3.80
2019-05-26T22:54:06.225Z,3.67
2019-05-26T22:56:34.740Z,4.93
2019-05-26T22:59:03.176Z,3.93
2019-05-26T23:01:31.746Z,3.47
2019-05-26T23:04:03.046Z,2.97
2019-05-26T23:06:30.339Z,3.60
2019-05-26T23:08:58.785Z,4.33
2019-05-26T23:11:27.276Z,4.77
2019-05-26T23:13:55.813Z,4.67
2019-05-26T23:16:24.231Z,3.37
2019-05-26T23:18:52.803Z,4.27
2019-05-26T23:21:21.231Z,4.50
2019-05-26T23:23:49.699Z,3.53
2019-05-26T23:26:19.907Z,3.57
2019-05-26T23:28:48.492Z,4.83
2019-05-26T23:31:16.939Z,3.77
2019-05-26T23:33:45.413Z,2.77
2019-05-26T23:36:13.910Z,3.10
2019-05-26T23:38:42.325Z,4.17
2019-05-26T23:41:10.756Z,5.03
2019-05-26T23:43:39.162Z,4.17
2019-05-26T23:46:07.706Z,3.40
2019-05-26T23:48:36.172Z,2.93
2019-05-26T23:51:04.580Z,4.93
2019-05-26T23:53:33.009Z,3.00
2019-05-26T23:56:01.432Z,2.73
2019-05-26T23:58:29.954Z,3.40
